sensor_id;sensor_type;location;lat;lon;timestamp;P1;durP1;ratioP1;P2;durP2;ratioP2
42336;SDS011;27987;51.468;5.464;2022-07-21T00:00:16;11.20;;;9.73;;
42336;SDS011;27987;51.468;5.464;2022-07-21T00:02:47;16.30;;;9.05;;
42336;SDS011;27987;51.468;5.464;2022-07-21T00:05:27;14.80;;;9.05;;
42336;SDS011;27987;51.468;5.464;2022-07-21T00:07:55;12.43;;;9.30;;
42336;SDS011;27987;51.468;5.464;2022-07-21T00:10:23;11.73;;;9.60;;
42336;SDS011;27987;51.468;5.464;2022-07-21T00:12:54;14.45;;;10.13;;
42336;SDS011;27987;51.468;5.464;2022-07-21T00:15:27;11.85;;;9.73;;
42336;SDS011;27987;51.468;5.464;2022-07-21T00:17:54;12.48;;;10.38;;
42336;SDS011;27987;51.468;5.464;2022-07-21T00:20:22;12.02;;;10.38;;
42336;SDS011;27987;51.468;5.464;2022-07-21T00:23:03;13.15;;;10.70;;
42336;SDS011;27987;51.468;5.464;2022-07-21T00:25:30;16.33;;;10.37;;
42336;SDS011;27987;51.468;5.464;2022-07-21T00:27:57;13.80;;;10.60;;
42336;SDS011;27987;51.468;5.464;2022-07-21T00:30:24;13.65;;;10.60;;
42336;SDS011;27987;51.468;5.464;2022-07-21T00:32:51;15.57;;;11.13;;
42336;SDS011;27987;51.468;5.464;2022-07-21T00:35:20;13.82;;;11.10;;
42336;SDS011;27987;51.468;5.464;2022-07-21T00:37:47;14.05;;;11.02;;
42336;SDS011;27987;51.468;5.464;2022-07-21T00:40:15;20.38;;;11.98;;
42336;SDS011;27987;51.468;5.464;2022-07-21T00:42:42;16.02;;;11.35;;
42336;SDS011;27987;51.468;5.464;2022-07-21T00:45:10;17.13;;;11.82;;
42336;SDS011;27987;51.468;5.464;2022-07-21T00:47:38;15.35;;;11.23;;
42336;SDS011;27987;51.468;5.464;2022-07-21T00:50:06;14.23;;;11.27;;
42336;SDS011;27987;51.468;5.464;2022-07-21T00:52:39;16.65;;;11.32;;
42336;SDS011;27987;51.468;5.464;2022-07-21T00:55:07;16.75;;;11.52;;
42336;SDS011;27987;51.468;5.464;2022-07-21T00:57:41;15.25;;;11.68;;
42336;SDS011;27987;51.468;5.464;2022-07-21T01:00:11;15.07;;;11.43;;
42336;SDS011;27987;51.468;5.464;2022-07-21T01:02:41;15.88;;;11.00;;
42336;SDS011;27987;51.468;5.464;2022-07-21T01:05:10;16.42;;;11.15;;
42336;SDS011;27987;51.468;5.464;2022-07-21T01:07:40;16.65;;;11.23;;
42336;SDS011;27987;51.468;5.464;2022-07-21T01:10:16;14.88;;;11.57;;
42336;SDS011;27987;51.468;5.464;2022-07-21T01:12:46;16.83;;;11.30;;
42336;SDS011;27987;51.468;5.464;2022-07-21T01:15:17;12.88;;;11.48;;
42336;SDS011;27987;51.468;5.464;2022-07-21T01:17:45;16.52;;;11.45;;
42336;SDS011;27987;51.468;5.464;2022-07-21T01:20:17;18.15;;;11.65;;
42336;SDS011;27987;51.468;5.464;2022-07-21T01:22:48;16.02;;;12.43;;
42336;SDS011;27987;51.468;5.464;2022-07-21T01:25:18;13.77;;;12.07;;
42336;SDS011;27987;51.468;5.464;2022-07-21T01:27:47;15.32;;;11.77;;
42336;SDS011;27987;51.468;5.464;2022-07-21T01:30:17;15.70;;;12.02;;
42336;SDS011;27987;51.468;5.464;2022-07-21T01:32:44;16.05;;;12.32;;
42336;SDS011;27987;51.468;5.464;2022-07-21T01:35:13;13.93;;;11.73;;
42336;SDS011;27987;51.468;5.464;2022-07-21T01:37:45;13.95;;;12.18;;
42336;SDS011;27987;51.468;5.464;2022-07-21T01:40:17;16.52;;;13.05;;
42336;SDS011;27987;51.468;5.464;2022-07-21T01:43:02;18.48;;;12.98;;
42336;SDS011;27987;51.468;5.464;2022-07-21T01:45:30;16.15;;;12.60;;
42336;SDS011;27987;51.468;5.464;2022-07-21T01:47:57;22.60;;;12.88;;
42336;SDS011;27987;51.468;5.464;2022-07-21T01:50:24;16.23;;;12.60;;
42336;SDS011;27987;51.468;5.464;2022-07-21T01:52:54;16.92;;;13.35;;
42336;SDS011;27987;51.468;5.464;2022-07-21T01:55:22;15.18;;;12.40;;
42336;SDS011;27987;51.468;5.464;2022-07-21T01:57:49;22.90;;;14.05;;
42336;SDS011;27987;51.468;5.464;2022-07-21T02:00:16;17.60;;;13.38;;
42336;SDS011;27987;51.468;5.464;2022-07-21T02:02:44;17.55;;;14.82;;
42336;SDS011;27987;51.468;5.464;2022-07-21T02:05:11;17.48;;;13.20;;
42336;SDS011;27987;51.468;5.464;2022-07-21T02:07:38;17.48;;;13.63;;
42336;SDS011;27987;51.468;5.464;2022-07-21T02:10:06;22.38;;;14.77;;
42336;SDS011;27987;51.468;5.464;2022-07-21T02:12:34;19.25;;;13.57;;
42336;SDS011;27987;51.468;5.464;2022-07-21T02:15:01;17.85;;;13.93;;
42336;SDS011;27987;51.468;5.464;2022-07-21T02:17:29;15.65;;;12.80;;
42336;SDS011;27987;51.468;5.464;2022-07-21T02:19:56;17.55;;;13.38;;
42336;SDS011;27987;51.468;5.464;2022-07-21T02:22:26;23.30;;;13.97;;
42336;SDS011;27987;51.468;5.464;2022-07-21T02:24:53;16.35;;;13.05;;
42336;SDS011;27987;51.468;5.464;2022-07-21T02:27:21;18.67;;;14.02;;
42336;SDS011;27987;51.468;5.464;2022-07-21T02:29:48;15.55;;;13.80;;
42336;SDS011;27987;51.468;5.464;2022-07-21T02:32:17;17.73;;;14.15;;
42336;SDS011;27987;51.468;5.464;2022-07-21T02:34:46;18.67;;;14.75;;
42336;SDS011;27987;51.468;5.464;2022-07-21T02:37:13;18.35;;;14.25;;
42336;SDS011;27987;51.468;5.464;2022-07-21T02:39:40;19.70;;;14.73;;
42336;SDS011;27987;51.468;5.464;2022-07-21T02:42:08;18.92;;;14.80;;
42336;SDS011;27987;51.468;5.464;2022-07-21T02:44:36;17.17;;;14.40;;
42336;SDS011;27987;51.468;5.464;2022-07-21T02:47:03;16.15;;;13.73;;
42336;SDS011;27987;51.468;5.464;2022-07-21T02:49:30;19.13;;;15.05;;
42336;SDS011;27987;51.468;5.464;2022-07-21T02:51:57;19.23;;;14.57;;
42336;SDS011;27987;51.468;5.464;2022-07-21T02:54:24;18.00;;;14.32;;
42336;SDS011;27987;51.468;5.464;2022-07-21T02:56:51;18.05;;;14.95;;
42336;SDS011;27987;51.468;5.464;2022-07-21T02:59:18;17.50;;;14.02;;
42336;SDS011;27987;51.468;5.464;2022-07-21T03:01:46;20.83;;;14.93;;
42336;SDS011;27987;51.468;5.464;2022-07-21T03:04:13;18.80;;;14.43;;
42336;SDS011;27987;51.468;5.464;2022-07-21T03:06:40;22.80;;;15.75;;
42336;SDS011;27987;51.468;5.464;2022-07-21T03:09:07;21.23;;;14.77;;
42336;SDS011;27987;51.468;5.464;2022-07-21T03:11:35;22.70;;;14.80;;
42336;SDS011;27987;51.468;5.464;2022-07-21T03:14:02;21.02;;;14.95;;
42336;SDS011;27987;51.468;5.464;2022-07-21T03:16:29;18.23;;;14.32;;
42336;SDS011;27987;51.468;5.464;2022-07-21T03:18:57;18.15;;;14.32;;
42336;SDS011;27987;51.468;5.464;2022-07-21T03:21:24;19.00;;;14.13;;
42336;SDS011;27987;51.468;5.464;2022-07-21T03:23:51;17.50;;;14.30;;
42336;SDS011;27987;51.468;5.464;2022-07-21T03:26:18;17.15;;;13.82;;
42336;SDS011;27987;51.468;5.464;2022-07-21T03:28:45;16.70;;;13.10;;
42336;SDS011;27987;51.468;5.464;2022-07-21T03:31:13;18.75;;;14.18;;
42336;SDS011;27987;51.468;5.464;2022-07-21T03:33:40;19.05;;;14.02;;
42336;SDS011;27987;51.468;5.464;2022-07-21T03:36:08;17.10;;;13.77;;
42336;SDS011;27987;51.468;5.464;2022-07-21T03:38:35;18.73;;;14.13;;
42336;SDS011;27987;51.468;5.464;2022-07-21T03:41:02;20.70;;;14.32;;
42336;SDS011;27987;51.468;5.464;2022-07-21T03:43:29;19.35;;;13.60;;
42336;SDS011;27987;51.468;5.464;2022-07-21T03:45:56;17.65;;;13.40;;
42336;SDS011;27987;51.468;5.464;2022-07-21T03:48:23;17.85;;;14.20;;
42336;SDS011;27987;51.468;5.464;2022-07-21T03:50:50;22.05;;;13.23;;
42336;SDS011;27987;51.468;5.464;2022-07-21T03:53:18;22.83;;;13.55;;
42336;SDS011;27987;51.468;5.464;2022-07-21T03:55:45;20.95;;;13.52;;
42336;SDS011;27987;51.468;5.464;2022-07-21T03:58:12;19.42;;;13.38;;
42336;SDS011;27987;51.468;5.464;2022-07-21T04:00:40;16.08;;;12.93;;
42336;SDS011;27987;51.468;5.464;2022-07-21T04:03:09;16.50;;;11.95;;
42336;SDS011;27987;51.468;5.464;2022-07-21T04:05:37;17.92;;;13.00;;
42336;SDS011;27987;51.468;5.464;2022-07-21T04:08:06;16.73;;;13.07;;
42336;SDS011;27987;51.468;5.464;2022-07-21T04:10:36;19.08;;;12.65;;
42336;SDS011;27987;51.468;5.464;2022-07-21T04:13:05;17.27;;;12.82;;
42336;SDS011;27987;51.468;5.464;2022-07-21T04:15:34;17.73;;;12.10;;
42336;SDS011;27987;51.468;5.464;2022-07-21T04:18:02;15.77;;;12.48;;
42336;SDS011;27987;51.468;5.464;2022-07-21T04:20:30;15.75;;;11.80;;
42336;SDS011;27987;51.468;5.464;2022-07-21T04:22:57;21.33;;;12.65;;
42336;SDS011;27987;51.468;5.464;2022-07-21T04:25:24;15.40;;;11.55;;
42336;SDS011;27987;51.468;5.464;2022-07-21T04:27:52;21.10;;;11.88;;
42336;SDS011;27987;51.468;5.464;2022-07-21T04:30:22;17.58;;;11.30;;
42336;SDS011;27987;51.468;5.464;2022-07-21T04:32:53;17.42;;;11.23;;
42336;SDS011;27987;51.468;5.464;2022-07-21T04:35:20;14.70;;;11.40;;
42336;SDS011;27987;51.468;5.464;2022-07-21T04:37:47;17.98;;;11.35;;
42336;SDS011;27987;51.468;5.464;2022-07-21T04:40:14;17.10;;;11.57;;
42336;SDS011;27987;51.468;5.464;2022-07-21T04:42:43;16.65;;;10.93;;
42336;SDS011;27987;51.468;5.464;2022-07-21T04:45:12;15.48;;;11.35;;
42336;SDS011;27987;51.468;5.464;2022-07-21T04:50:13;15.52;;;10.85;;
42336;SDS011;27987;51.468;5.464;2022-07-21T04:52:41;19.85;;;10.45;;
42336;SDS011;27987;51.468;5.464;2022-07-21T04:55:08;17.27;;;10.77;;
42336;SDS011;27987;51.468;5.464;2022-07-21T04:57:40;18.27;;;10.27;;
42336;SDS011;27987;51.468;5.464;2022-07-21T05:00:09;16.42;;;10.40;;
42336;SDS011;27987;51.468;5.464;2022-07-21T05:02:40;15.27;;;9.52;;
42336;SDS011;27987;51.468;5.464;2022-07-21T05:05:08;17.17;;;9.48;;
42336;SDS011;27987;51.468;5.464;2022-07-21T05:07:35;15.00;;;9.50;;
42336;SDS011;27987;51.468;5.464;2022-07-21T05:10:04;16.48;;;9.75;;
42336;SDS011;27987;51.468;5.464;2022-07-21T05:12:36;18.27;;;10.32;;
42336;SDS011;27987;51.468;5.464;2022-07-21T05:15:03;14.98;;;8.95;;
42336;SDS011;27987;51.468;5.464;2022-07-21T05:17:35;14.77;;;9.77;;
42336;SDS011;27987;51.468;5.464;2022-07-21T05:20:02;19.25;;;9.60;;
42336;SDS011;27987;51.468;5.464;2022-07-21T05:22:29;16.25;;;9.63;;
42336;SDS011;27987;51.468;5.464;2022-07-21T05:24:57;14.27;;;9.32;;
42336;SDS011;27987;51.468;5.464;2022-07-21T05:27:24;15.15;;;8.70;;
42336;SDS011;27987;51.468;5.464;2022-07-21T05:29:51;14.65;;;9.20;;
42336;SDS011;27987;51.468;5.464;2022-07-21T05:32:18;19.63;;;9.38;;
42336;SDS011;27987;51.468;5.464;2022-07-21T05:34:46;16.52;;;9.20;;
42336;SDS011;27987;51.468;5.464;2022-07-21T05:37:13;15.05;;;8.90;;
42336;SDS011;27987;51.468;5.464;2022-07-21T05:39:40;16.13;;;8.60;;
42336;SDS011;27987;51.468;5.464;2022-07-21T05:42:06;17.60;;;9.05;;
42336;SDS011;27987;51.468;5.464;2022-07-21T05:44:33;15.23;;;9.07;;
42336;SDS011;27987;51.468;5.464;2022-07-21T05:47:00;18.48;;;9.82;;
42336;SDS011;27987;51.468;5.464;2022-07-21T05:49:28;22.13;;;9.45;;
42336;SDS011;27987;51.468;5.464;2022-07-21T05:51:56;19.85;;;10.70;;
42336;SDS011;27987;51.468;5.464;2022-07-21T05:54:23;18.35;;;10.77;;
42336;SDS011;27987;51.468;5.464;2022-07-21T05:56:50;18.98;;;11.38;;
42336;SDS011;27987;51.468;5.464;2022-07-21T05:59:17;22.05;;;12.80;;
42336;SDS011;27987;51.468;5.464;2022-07-21T06:01:47;23.67;;;11.70;;
42336;SDS011;27987;51.468;5.464;2022-07-21T06:04:14;23.42;;;12.82;;
42336;SDS011;27987;51.468;5.464;2022-07-21T06:06:40;23.70;;;12.90;;
42336;SDS011;27987;51.468;5.464;2022-07-21T06:09:09;21.13;;;13.35;;
42336;SDS011;27987;51.468;5.464;2022-07-21T06:11:36;23.38;;;14.20;;
42336;SDS011;27987;51.468;5.464;2022-07-21T06:14:02;23.90;;;13.80;;
42336;SDS011;27987;51.468;5.464;2022-07-21T06:16:32;27.30;;;14.80;;
42336;SDS011;27987;51.468;5.464;2022-07-21T06:18:59;28.23;;;13.68;;
42336;SDS011;27987;51.468;5.464;2022-07-21T06:21:26;25.35;;;14.52;;
42336;SDS011;27987;51.468;5.464;2022-07-21T06:23:53;20.83;;;14.52;;
42336;SDS011;27987;51.468;5.464;2022-07-21T06:26:22;29.25;;;17.40;;
42336;SDS011;27987;51.468;5.464;2022-07-21T06:28:48;27.40;;;15.98;;
42336;SDS011;27987;51.468;5.464;2022-07-21T06:31:16;24.67;;;14.93;;
42336;SDS011;27987;51.468;5.464;2022-07-21T06:33:43;26.15;;;14.27;;
42336;SDS011;27987;51.468;5.464;2022-07-21T06:36:10;25.48;;;16.67;;
42336;SDS011;27987;51.468;5.464;2022-07-21T06:38:37;27.25;;;16.85;;
42336;SDS011;27987;51.468;5.464;2022-07-21T06:41:04;27.67;;;19.35;;
42336;SDS011;27987;51.468;5.464;2022-07-21T06:43:33;33.95;;;18.63;;
42336;SDS011;27987;51.468;5.464;2022-07-21T06:46:00;28.08;;;17.15;;
42336;SDS011;27987;51.468;5.464;2022-07-21T06:48:27;27.13;;;17.80;;
42336;SDS011;27987;51.468;5.464;2022-07-21T06:50:54;22.35;;;15.88;;
42336;SDS011;27987;51.468;5.464;2022-07-21T06:53:21;23.83;;;15.15;;
42336;SDS011;27987;51.468;5.464;2022-07-21T06:55:49;28.35;;;16.08;;
42336;SDS011;27987;51.468;5.464;2022-07-21T06:58:17;23.88;;;15.15;;
42336;SDS011;27987;51.468;5.464;2022-07-21T07:00:49;21.40;;;15.13;;
42336;SDS011;27987;51.468;5.464;2022-07-21T07:03:17;24.83;;;16.75;;
42336;SDS011;27987;51.468;5.464;2022-07-21T07:05:45;28.90;;;15.60;;
42336;SDS011;27987;51.468;5.464;2022-07-21T07:08:13;27.58;;;15.65;;
42336;SDS011;27987;51.468;5.464;2022-07-21T07:10:42;23.98;;;15.55;;
42336;SDS011;27987;51.468;5.464;2022-07-21T07:13:14;35.53;;;15.05;;
42336;SDS011;27987;51.468;5.464;2022-07-21T07:15:43;26.63;;;14.05;;
42336;SDS011;27987;51.468;5.464;2022-07-21T07:18:11;24.58;;;14.77;;
42336;SDS011;27987;51.468;5.464;2022-07-21T07:20:38;27.92;;;15.05;;
42336;SDS011;27987;51.468;5.464;2022-07-21T07:23:05;22.92;;;14.77;;
42336;SDS011;27987;51.468;5.464;2022-07-21T07:25:34;26.10;;;15.75;;
42336;SDS011;27987;51.468;5.464;2022-07-21T07:28:03;24.15;;;14.30;;
42336;SDS011;27987;51.468;5.464;2022-07-21T07:30:32;21.13;;;14.15;;
42336;SDS011;27987;51.468;5.464;2022-07-21T07:33:01;25.75;;;14.95;;
42336;SDS011;27987;51.468;5.464;2022-07-21T07:35:29;22.13;;;15.10;;
42336;SDS011;27987;51.468;5.464;2022-07-21T07:37:56;22.50;;;14.93;;
42336;SDS011;27987;51.468;5.464;2022-07-21T07:40:23;22.30;;;13.70;;
42336;SDS011;27987;51.468;5.464;2022-07-21T07:42:51;26.70;;;14.13;;
42336;SDS011;27987;51.468;5.464;2022-07-21T07:45:18;23.10;;;14.82;;
42336;SDS011;27987;51.468;5.464;2022-07-21T07:47:45;27.88;;;15.82;;
42336;SDS011;27987;51.468;5.464;2022-07-21T07:50:13;26.85;;;14.88;;
42336;SDS011;27987;51.468;5.464;2022-07-21T07:52:43;28.88;;;13.65;;
42336;SDS011;27987;51.468;5.464;2022-07-21T07:55:14;21.55;;;13.50;;
42336;SDS011;27987;51.468;5.464;2022-07-21T07:57:44;19.40;;;12.38;;
42336;SDS011;27987;51.468;5.464;2022-07-21T08:00:13;17.92;;;12.90;;
42336;SDS011;27987;51.468;5.464;2022-07-21T08:02:43;22.67;;;13.10;;
42336;SDS011;27987;51.468;5.464;2022-07-21T08:05:10;22.80;;;15.45;;
42336;SDS011;27987;51.468;5.464;2022-07-21T08:07:38;20.60;;;14.48;;
42336;SDS011;27987;51.468;5.464;2022-07-21T08:10:07;20.90;;;13.95;;
42336;SDS011;27987;51.468;5.464;2022-07-21T08:12:37;20.52;;;13.82;;
42336;SDS011;27987;51.468;5.464;2022-07-21T08:15:05;18.38;;;13.77;;
42336;SDS011;27987;51.468;5.464;2022-07-21T08:17:33;20.02;;;13.02;;
42336;SDS011;27987;51.468;5.464;2022-07-21T08:20:00;19.23;;;13.68;;
42336;SDS011;27987;51.468;5.464;2022-07-21T08:22:27;15.82;;;11.25;;
42336;SDS011;27987;51.468;5.464;2022-07-21T08:24:54;14.60;;;11.00;;
42336;SDS011;27987;51.468;5.464;2022-07-21T08:27:22;14.13;;;9.50;;
42336;SDS011;27987;51.468;5.464;2022-07-21T08:29:52;12.60;;;8.95;;
42336;SDS011;27987;51.468;5.464;2022-07-21T08:32:19;10.48;;;8.68;;
42336;SDS011;27987;51.468;5.464;2022-07-21T08:34:46;17.70;;;10.10;;
42336;SDS011;27987;51.468;5.464;2022-07-21T08:37:14;13.48;;;8.48;;
42336;SDS011;27987;51.468;5.464;2022-07-21T08:39:41;11.55;;;7.47;;
42336;SDS011;27987;51.468;5.464;2022-07-21T08:42:08;11.45;;;7.75;;
42336;SDS011;27987;51.468;5.464;2022-07-21T08:44:38;18.25;;;8.43;;
42336;SDS011;27987;51.468;5.464;2022-07-21T08:47:05;16.77;;;8.90;;
42336;SDS011;27987;51.468;5.464;2022-07-21T08:49:35;15.50;;;10.77;;
42336;SDS011;27987;51.468;5.464;2022-07-21T08:52:05;17.08;;;11.57;;
42336;SDS011;27987;51.468;5.464;2022-07-21T08:54:32;20.75;;;12.80;;
42336;SDS011;27987;51.468;5.464;2022-07-21T08:56:59;18.17;;;12.23;;
42336;SDS011;27987;51.468;5.464;2022-07-21T08:59:26;16.60;;;13.18;;
42336;SDS011;27987;51.468;5.464;2022-07-21T09:01:54;18.90;;;11.55;;
42336;SDS011;27987;51.468;5.464;2022-07-21T09:04:22;19.70;;;12.02;;
42336;SDS011;27987;51.468;5.464;2022-07-21T09:06:53;16.85;;;12.30;;
42336;SDS011;27987;51.468;5.464;2022-07-21T09:09:22;18.95;;;13.27;;
42336;SDS011;27987;51.468;5.464;2022-07-21T09:11:50;18.55;;;12.60;;
42336;SDS011;27987;51.468;5.464;2022-07-21T09:14:19;17.40;;;12.98;;
42336;SDS011;27987;51.468;5.464;2022-07-21T09:16:48;16.48;;;13.30;;
42336;SDS011;27987;51.468;5.464;2022-07-21T09:19:20;15.87;;;12.37;;
42336;SDS011;27987;51.468;5.464;2022-07-21T09:21:50;14.43;;;12.57;;
42336;SDS011;27987;51.468;5.464;2022-07-21T09:24:21;17.00;;;13.05;;
42336;SDS011;27987;51.468;5.464;2022-07-21T09:29:45;16.23;;;11.65;;
42336;SDS011;27987;51.468;5.464;2022-07-21T09:32:18;16.45;;;10.07;;
42336;SDS011;27987;51.468;5.464;2022-07-21T09:34:50;12.88;;;9.38;;
42336;SDS011;27987;51.468;5.464;2022-07-21T09:37:19;12.75;;;9.25;;
42336;SDS011;27987;51.468;5.464;2022-07-21T09:39:49;11.82;;;8.77;;
42336;SDS011;27987;51.468;5.464;2022-07-21T09:42:20;11.95;;;9.00;;
42336;SDS011;27987;51.468;5.464;2022-07-21T09:44:50;10.60;;;8.00;;
42336;SDS011;27987;51.468;5.464;2022-07-21T09:47:25;8.27;;;7.25;;
42336;SDS011;27987;51.468;5.464;2022-07-21T09:49:56;8.77;;;7.25;;
42336;SDS011;27987;51.468;5.464;2022-07-21T09:54:59;8.90;;;7.60;;
42336;SDS011;27987;51.468;5.464;2022-07-21T09:57:29;13.52;;;8.63;;
42336;SDS011;27987;51.468;5.464;2022-07-21T09:59:57;10.57;;;7.68;;
42336;SDS011;27987;51.468;5.464;2022-07-21T10:02:25;8.80;;;6.72;;
42336;SDS011;27987;51.468;5.464;2022-07-21T10:04:57;10.48;;;6.72;;
42336;SDS011;27987;51.468;5.464;2022-07-21T10:07:31;8.50;;;7.18;;
42336;SDS011;27987;51.468;5.464;2022-07-21T10:10:01;9.10;;;7.15;;
42336;SDS011;27987;51.468;5.464;2022-07-21T10:12:31;7.88;;;6.50;;
42336;SDS011;27987;51.468;5.464;2022-07-21T10:15:00;8.35;;;6.20;;
42336;SDS011;27987;51.468;5.464;2022-07-21T10:17:27;10.18;;;6.78;;
42336;SDS011;27987;51.468;5.464;2022-07-21T10:20:02;8.95;;;6.93;;
42336;SDS011;27987;51.468;5.464;2022-07-21T10:22:40;6.82;;;5.90;;
42336;SDS011;27987;51.468;5.464;2022-07-21T10:25:23;7.45;;;6.07;;
42336;SDS011;27987;51.468;5.464;2022-07-21T10:30:46;7.88;;;6.68;;
42336;SDS011;27987;51.468;5.464;2022-07-21T10:33:15;12.57;;;7.97;;
42336;SDS011;27987;51.468;5.464;2022-07-21T10:35:47;9.38;;;6.68;;
42336;SDS011;27987;51.468;5.464;2022-07-21T10:38:26;9.48;;;7.25;;
42336;SDS011;27987;51.468;5.464;2022-07-21T10:40:54;8.88;;;7.53;;
42336;SDS011;27987;51.468;5.464;2022-07-21T10:43:38;9.57;;;6.88;;
42336;SDS011;27987;51.468;5.464;2022-07-21T10:49:06;8.43;;;6.47;;
42336;SDS011;27987;51.468;5.464;2022-07-21T10:51:37;8.88;;;6.55;;
42336;SDS011;27987;51.468;5.464;2022-07-21T10:54:18;9.73;;;6.22;;
42336;SDS011;27987;51.468;5.464;2022-07-21T11:02:52;9.63;;;7.10;;
42336;SDS011;27987;51.468;5.464;2022-07-21T11:05:22;11.10;;;7.20;;
42336;SDS011;27987;51.468;5.464;2022-07-21T11:08:14;10.85;;;8.00;;
42336;SDS011;27987;51.468;5.464;2022-07-21T11:10:47;11.70;;;7.72;;
42336;SDS011;27987;51.468;5.464;2022-07-21T11:13:56;13.32;;;8.52;;
42336;SDS011;27987;51.468;5.464;2022-07-21T11:19:38;11.98;;;9.77;;
42336;SDS011;27987;51.468;5.464;2022-07-21T11:22:14;15.05;;;10.15;;
42336;SDS011;27987;51.468;5.464;2022-07-21T11:24:47;14.70;;;11.52;;
42336;SDS011;27987;51.468;5.464;2022-07-21T11:27:20;15.40;;;10.73;;
42336;SDS011;27987;51.468;5.464;2022-07-21T11:29:52;11.35;;;10.10;;
42336;SDS011;27987;51.468;5.464;2022-07-21T11:32:20;14.60;;;10.95;;
42336;SDS011;27987;51.468;5.464;2022-07-21T11:34:50;16.95;;;11.35;;
42336;SDS011;27987;51.468;5.464;2022-07-21T11:39:55;17.55;;;10.20;;
42336;SDS011;27987;51.468;5.464;2022-07-21T11:42:22;15.90;;;9.77;;
42336;SDS011;27987;51.468;5.464;2022-07-21T11:44:52;13.60;;;8.60;;
42336;SDS011;27987;51.468;5.464;2022-07-21T11:47:19;12.27;;;9.23;;
42336;SDS011;27987;51.468;5.464;2022-07-21T11:49:51;11.68;;;8.68;;
42336;SDS011;27987;51.468;5.464;2022-07-21T11:52:24;13.37;;;9.33;;
42336;SDS011;27987;51.468;5.464;2022-07-21T11:54:55;13.20;;;10.02;;
42336;SDS011;27987;51.468;5.464;2022-07-21T11:57:24;12.52;;;9.52;;
42336;SDS011;27987;51.468;5.464;2022-07-21T11:59:56;14.02;;;10.00;;
42336;SDS011;27987;51.468;5.464;2022-07-21T12:02:25;14.38;;;9.45;;
42336;SDS011;27987;51.468;5.464;2022-07-21T12:04:57;17.33;;;11.02;;
42336;SDS011;27987;51.468;5.464;2022-07-21T12:07:26;13.82;;;10.52;;
42336;SDS011;27987;51.468;5.464;2022-07-21T12:09:59;14.85;;;10.57;;
42336;SDS011;27987;51.468;5.464;2022-07-21T12:12:31;14.95;;;11.15;;
42336;SDS011;27987;51.468;5.464;2022-07-21T12:15:12;17.90;;;12.27;;
42336;SDS011;27987;51.468;5.464;2022-07-21T12:17:43;16.95;;;10.88;;
42336;SDS011;27987;51.468;5.464;2022-07-21T12:20:13;11.05;;;9.27;;
42336;SDS011;27987;51.468;5.464;2022-07-21T12:22:42;17.77;;;9.48;;
42336;SDS011;27987;51.468;5.464;2022-07-21T12:25:13;10.85;;;8.93;;
42336;SDS011;27987;51.468;5.464;2022-07-21T12:27:45;12.52;;;8.27;;
42336;SDS011;27987;51.468;5.464;2022-07-21T12:30:29;12.18;;;8.02;;
42336;SDS011;27987;51.468;5.464;2022-07-21T12:33:01;9.32;;;8.40;;
42336;SDS011;27987;51.468;5.464;2022-07-21T12:35:31;9.73;;;7.68;;
42336;SDS011;27987;51.468;5.464;2022-07-21T12:38:00;13.65;;;7.80;;
42336;SDS011;27987;51.468;5.464;2022-07-21T12:40:36;10.18;;;7.70;;
42336;SDS011;27987;51.468;5.464;2022-07-21T12:43:09;8.48;;;7.03;;
42336;SDS011;27987;51.468;5.464;2022-07-21T12:45:47;9.73;;;6.80;;
42336;SDS011;27987;51.468;5.464;2022-07-21T12:48:24;11.93;;;6.75;;
42336;SDS011;27987;51.468;5.464;2022-07-21T12:50:57;10.52;;;6.50;;
42336;SDS011;27987;51.468;5.464;2022-07-21T12:53:36;8.30;;;6.10;;
42336;SDS011;27987;51.468;5.464;2022-07-21T12:56:08;8.20;;;5.50;;
42336;SDS011;27987;51.468;5.464;2022-07-21T12:58:37;8.65;;;5.57;;
42336;SDS011;27987;51.468;5.464;2022-07-21T13:01:04;7.68;;;5.55;;
42336;SDS011;27987;51.468;5.464;2022-07-21T13:03:32;6.78;;;4.97;;
42336;SDS011;27987;51.468;5.464;2022-07-21T13:06:02;9.73;;;5.15;;
42336;SDS011;27987;51.468;5.464;2022-07-21T13:08:34;6.85;;;3.35;;
42336;SDS011;27987;51.468;5.464;2022-07-21T13:11:03;8.70;;;4.40;;
42336;SDS011;27987;51.468;5.464;2022-07-21T13:13:34;6.35;;;3.97;;
42336;SDS011;27987;51.468;5.464;2022-07-21T13:16:01;6.57;;;3.90;;
42336;SDS011;27987;51.468;5.464;2022-07-21T13:18:28;6.88;;;3.80;;
42336;SDS011;27987;51.468;5.464;2022-07-21T13:20:55;5.80;;;3.70;;
42336;SDS011;27987;51.468;5.464;2022-07-21T13:23:22;6.72;;;3.75;;
42336;SDS011;27987;51.468;5.464;2022-07-21T13:25:49;7.38;;;3.67;;
42336;SDS011;27987;51.468;5.464;2022-07-21T13:28:17;6.32;;;3.95;;
42336;SDS011;27987;51.468;5.464;2022-07-21T13:30:45;6.20;;;3.30;;
42336;SDS011;27987;51.468;5.464;2022-07-21T13:33:12;11.30;;;3.42;;
42336;SDS011;27987;51.468;5.464;2022-07-21T13:35:40;8.25;;;3.75;;
42336;SDS011;27987;51.468;5.464;2022-07-21T13:38:08;5.97;;;3.40;;
42336;SDS011;27987;51.468;5.464;2022-07-21T13:40:36;7.13;;;3.88;;
42336;SDS011;27987;51.468;5.464;2022-07-21T13:43:03;7.82;;;3.70;;
42336;SDS011;27987;51.468;5.464;2022-07-21T13:45:30;8.52;;;3.80;;
42336;SDS011;27987;51.468;5.464;2022-07-21T13:47:59;7.68;;;3.70;;
42336;SDS011;27987;51.468;5.464;2022-07-21T13:50:27;7.60;;;3.50;;
42336;SDS011;27987;51.468;5.464;2022-07-21T13:52:54;7.97;;;3.95;;
42336;SDS011;27987;51.468;5.464;2022-07-21T13:55:20;7.78;;;3.90;;
42336;SDS011;27987;51.468;5.464;2022-07-21T13:57:47;7.53;;;3.80;;
42336;SDS011;27987;51.468;5.464;2022-07-21T14:00:16;8.00;;;3.70;;
42336;SDS011;27987;51.468;5.464;2022-07-21T14:02:43;13.48;;;6.18;;
42336;SDS011;27987;51.468;5.464;2022-07-21T14:05:11;12.68;;;8.55;;
42336;SDS011;27987;51.468;5.464;2022-07-21T14:07:38;11.65;;;6.40;;
42336;SDS011;27987;51.468;5.464;2022-07-21T14:10:07;11.02;;;6.65;;
42336;SDS011;27987;51.468;5.464;2022-07-21T14:12:37;11.35;;;5.68;;
42336;SDS011;27987;51.468;5.464;2022-07-21T14:15:06;8.70;;;5.35;;
42336;SDS011;27987;51.468;5.464;2022-07-21T14:17:36;7.35;;;5.18;;
42336;SDS011;27987;51.468;5.464;2022-07-21T14:20:03;10.05;;;4.10;;
42336;SDS011;27987;51.468;5.464;2022-07-21T14:22:35;8.80;;;4.32;;
42336;SDS011;27987;51.468;5.464;2022-07-21T14:25:09;8.73;;;4.00;;
42336;SDS011;27987;51.468;5.464;2022-07-21T14:27:44;7.95;;;4.60;;
42336;SDS011;27987;51.468;5.464;2022-07-21T14:30:11;7.82;;;4.20;;
42336;SDS011;27987;51.468;5.464;2022-07-21T14:32:38;7.65;;;3.75;;
42336;SDS011;27987;51.468;5.464;2022-07-21T14:35:08;8.43;;;4.40;;
42336;SDS011;27987;51.468;5.464;2022-07-21T14:37:45;12.25;;;4.60;;
42336;SDS011;27987;51.468;5.464;2022-07-21T14:40:12;11.68;;;4.80;;
42336;SDS011;27987;51.468;5.464;2022-07-21T14:42:41;10.98;;;5.20;;
42336;SDS011;27987;51.468;5.464;2022-07-21T14:45:08;10.80;;;4.97;;
42336;SDS011;27987;51.468;5.464;2022-07-21T14:47:35;11.80;;;5.25;;
42336;SDS011;27987;51.468;5.464;2022-07-21T14:50:02;16.10;;;5.32;;
42336;SDS011;27987;51.468;5.464;2022-07-21T14:52:30;13.80;;;5.85;;
42336;SDS011;27987;51.468;5.464;2022-07-21T14:54:59;15.80;;;5.93;;
42336;SDS011;27987;51.468;5.464;2022-07-21T14:57:26;13.27;;;5.82;;
42336;SDS011;27987;51.468;5.464;2022-07-21T14:59:53;12.75;;;6.07;;
42336;SDS011;27987;51.468;5.464;2022-07-21T15:02:22;16.77;;;6.25;;
42336;SDS011;27987;51.468;5.464;2022-07-21T15:04:49;14.07;;;5.53;;